sensor_id;sensor_type;location;lat;lon;timestamp;temperature;humidity
11597;DHT22;5854;48.072;16.286;2023-08-31T00:00:09;17.90;55.90
11597;DHT22;5854;48.072;16.286;2023-08-31T00:02:38;17.90;55.90
11597;DHT22;5854;48.072;16.286;2023-08-31T00:05:07;17.90;56.30
11597;DHT22;5854;48.072;16.286;2023-08-31T00:07:34;17.90;55.90
11597;DHT22;5854;48.072;16.286;2023-08-31T00:10:02;18.00;55.80
11597;DHT22;5854;48.072;16.286;2023-08-31T00:12:34;18.00;56.40
11597;DHT22;5854;48.072;16.286;2023-08-31T00:15:05;18.00;55.70
11597;DHT22;5854;48.072;16.286;2023-08-31T00:17:34;17.90;55.50
11597;DHT22;5854;48.072;16.286;2023-08-31T00:20:01;17.80;56.20
11597;DHT22;5854;48.072;16.286;2023-08-31T00:22:31;17.90;56.10
11597;DHT22;5854;48.072;16.286;2023-08-31T00:24:58;17.80;55.90
11597;DHT22;5854;48.072;16.286;2023-08-31T00:27:25;17.80;56.30
11597;DHT22;5854;48.072;16.286;2023-08-31T00:29:55;17.90;55.80
11597;DHT22;5854;48.072;16.286;2023-08-31T00:32:25;17.90;56.30
11597;DHT22;5854;48.072;16.286;2023-08-31T00:34:52;18.00;56.10
11597;DHT22;5854;48.072;16.286;2023-08-31T00:37:19;18.00;55.00
11597;DHT22;5854;48.072;16.286;2023-08-31T00:39:47;18.00;55.80
11597;DHT22;5854;48.072;16.286;2023-08-31T00:42:17;18.00;55.60
11597;DHT22;5854;48.072;16.286;2023-08-31T00:44:45;17.90;55.50
11597;DHT22;5854;48.072;16.286;2023-08-31T00:47:12;17.80;56.10
11597;DHT22;5854;48.072;16.286;2023-08-31T00:49:41;17.80;56.50
11597;DHT22;5854;48.072;16.286;2023-08-31T00:52:09;17.80;55.90
11597;DHT22;5854;48.072;16.286;2023-08-31T00:54:36;17.70;56.30
11597;DHT22;5854;48.072;16.286;2023-08-31T00:57:04;17.70;57.30
11597;DHT22;5854;48.072;16.286;2023-08-31T00:59:31;17.90;56.60
11597;DHT22;5854;48.072;16.286;2023-08-31T01:02:03;17.80;56.30
11597;DHT22;5854;48.072;16.286;2023-08-31T01:04:41;17.80;56.40
11597;DHT22;5854;48.072;16.286;2023-08-31T01:07:22;17.90;56.60
11597;DHT22;5854;48.072;16.286;2023-08-31T01:10:03;17.80;56.70
11597;DHT22;5854;48.072;16.286;2023-08-31T01:12:39;17.80;56.60
11597;DHT22;5854;48.072;16.286;2023-08-31T01:15:11;17.80;56.40
11597;DHT22;5854;48.072;16.286;2023-08-31T01:17:42;17.80;56.70
11597;DHT22;5854;48.072;16.286;2023-08-31T01:20:15;17.80;56.70
11597;DHT22;5854;48.072;16.286;2023-08-31T01:22:55;17.70;57.10
11597;DHT22;5854;48.072;16.286;2023-08-31T01:25:25;17.80;57.00
11597;DHT22;5854;48.072;16.286;2023-08-31T01:27:53;17.70;57.30
11597;DHT22;5854;48.072;16.286;2023-08-31T01:30:20;17.70;57.30
11597;DHT22;5854;48.072;16.286;2023-08-31T01:32:47;17.70;57.30
11597;DHT22;5854;48.072;16.286;2023-08-31T01:35:16;17.70;57.40
11597;DHT22;5854;48.072;16.286;2023-08-31T01:37:49;17.60;58.20
11597;DHT22;5854;48.072;16.286;2023-08-31T01:40:22;17.60;58.00
11597;DHT22;5854;48.072;16.286;2023-08-31T01:42:52;17.60;57.80
11597;DHT22;5854;48.072;16.286;2023-08-31T01:45:22;17.50;58.20
11597;DHT22;5854;48.072;16.286;2023-08-31T01:47:49;17.60;58.10
11597;DHT22;5854;48.072;16.286;2023-08-31T01:50:16;17.60;58.10
11597;DHT22;5854;48.072;16.286;2023-08-31T01:52:44;17.60;58.90
11597;DHT22;5854;48.072;16.286;2023-08-31T01:55:11;17.50;58.90
11597;DHT22;5854;48.072;16.286;2023-08-31T01:57:42;17.60;58.20
11597;DHT22;5854;48.072;16.286;2023-08-31T02:00:11;17.60;58.00
11597;DHT22;5854;48.072;16.286;2023-08-31T02:02:39;17.60;58.10
11597;DHT22;5854;48.072;16.286;2023-08-31T02:05:06;17.30;60.50
11597;DHT22;5854;48.072;16.286;2023-08-31T02:07:34;17.30;60.30
11597;DHT22;5854;48.072;16.286;2023-08-31T02:10:01;17.40;59.30
11597;DHT22;5854;48.072;16.286;2023-08-31T02:12:31;17.40;59.10
11597;DHT22;5854;48.072;16.286;2023-08-31T02:15:00;17.50;58.70
11597;DHT22;5854;48.072;16.286;2023-08-31T02:17:27;17.40;61.50
11597;DHT22;5854;48.072;16.286;2023-08-31T02:19:54;17.30;63.00
11597;DHT22;5854;48.072;16.286;2023-08-31T02:22:23;17.30;60.40
11597;DHT22;5854;48.072;16.286;2023-08-31T02:24:50;17.30;62.30
11597;DHT22;5854;48.072;16.286;2023-08-31T02:27:17;17.40;59.90
11597;DHT22;5854;48.072;16.286;2023-08-31T02:29:45;17.30;60.20
11597;DHT22;5854;48.072;16.286;2023-08-31T02:32:13;17.30;61.90
11597;DHT22;5854;48.072;16.286;2023-08-31T02:34:40;17.30;60.60
11597;DHT22;5854;48.072;16.286;2023-08-31T02:37:07;17.20;60.80
11597;DHT22;5854;48.072;16.286;2023-08-31T02:39:34;17.20;61.40
11597;DHT22;5854;48.072;16.286;2023-08-31T02:42:01;17.30;60.20
11597;DHT22;5854;48.072;16.286;2023-08-31T02:44:30;17.30;61.50
11597;DHT22;5854;48.072;16.286;2023-08-31T02:46:57;17.30;60.00
11597;DHT22;5854;48.072;16.286;2023-08-31T02:49:26;17.30;60.70
11597;DHT22;5854;48.072;16.286;2023-08-31T02:51:53;17.30;59.70
11597;DHT22;5854;48.072;16.286;2023-08-31T02:54:20;17.40;60.00
11597;DHT22;5854;48.072;16.286;2023-08-31T02:56:48;17.40;59.30
11597;DHT22;5854;48.072;16.286;2023-08-31T02:59:15;17.40;59.60
11597;DHT22;5854;48.072;16.286;2023-08-31T03:01:43;17.40;60.90
11597;DHT22;5854;48.072;16.286;2023-08-31T03:04:12;17.40;59.20
11597;DHT22;5854;48.072;16.286;2023-08-31T03:06:40;17.40;60.50
11597;DHT22;5854;48.072;16.286;2023-08-31T03:09:07;17.30;59.50
11597;DHT22;5854;48.072;16.286;2023-08-31T03:11:35;17.30;59.60
11597;DHT22;5854;48.072;16.286;2023-08-31T03:14:02;17.30;60.10
11597;DHT22;5854;48.072;16.286;2023-08-31T03:16:30;17.30;60.10
11597;DHT22;5854;48.072;16.286;2023-08-31T03:18:57;17.20;59.70
11597;DHT22;5854;48.072;16.286;2023-08-31T03:21:24;17.10;60.80
11597;DHT22;5854;48.072;16.286;2023-08-31T03:23:52;17.10;61.90
11597;DHT22;5854;48.072;16.286;2023-08-31T03:26:19;17.10;60.40
11597;DHT22;5854;48.072;16.286;2023-08-31T03:28:46;17.10;61.00
11597;DHT22;5854;48.072;16.286;2023-08-31T03:31:13;16.90;61.80
11597;DHT22;5854;48.072;16.286;2023-08-31T03:33:40;16.90;61.90
11597;DHT22;5854;48.072;16.286;2023-08-31T03:36:07;17.00;61.50
11597;DHT22;5854;48.072;16.286;2023-08-31T03:38:34;17.00;61.10
11597;DHT22;5854;48.072;16.286;2023-08-31T03:41:05;17.10;61.40
11597;DHT22;5854;48.072;16.286;2023-08-31T03:43:32;17.10;60.80
11597;DHT22;5854;48.072;16.286;2023-08-31T03:45:59;17.10;59.20
11597;DHT22;5854;48.072;16.286;2023-08-31T03:48:27;17.10;59.70
11597;DHT22;5854;48.072;16.286;2023-08-31T03:50:54;17.10;59.20
11597;DHT22;5854;48.072;16.286;2023-08-31T03:53:22;17.00;59.20
11597;DHT22;5854;48.072;16.286;2023-08-31T03:55:49;17.00;59.70
11597;DHT22;5854;48.072;16.286;2023-08-31T03:58:19;17.00;59.10
11597;DHT22;5854;48.072;16.286;2023-08-31T04:00:49;17.00;59.50
11597;DHT22;5854;48.072;16.286;2023-08-31T04:03:17;16.90;59.20
11597;DHT22;5854;48.072;16.286;2023-08-31T04:05:44;17.00;59.40
11597;DHT22;5854;48.072;16.286;2023-08-31T04:08:12;17.00;59.40
11597;DHT22;5854;48.072;16.286;2023-08-31T04:10:39;17.00;58.90
11597;DHT22;5854;48.072;16.286;2023-08-31T04:13:08;17.00;59.00
11597;DHT22;5854;48.072;16.286;2023-08-31T04:15:37;17.00;58.90
11597;DHT22;5854;48.072;16.286;2023-08-31T04:18:04;17.00;59.10
11597;DHT22;5854;48.072;16.286;2023-08-31T04:20:33;17.10;59.00
11597;DHT22;5854;48.072;16.286;2023-08-31T04:23:00;17.10;59.00
11597;DHT22;5854;48.072;16.286;2023-08-31T04:25:28;17.10;58.60
11597;DHT22;5854;48.072;16.286;2023-08-31T04:27:56;17.20;58.60
11597;DHT22;5854;48.072;16.286;2023-08-31T04:30:24;17.20;58.70
11597;DHT22;5854;48.072;16.286;2023-08-31T04:32:53;17.10;59.20
11597;DHT22;5854;48.072;16.286;2023-08-31T04:35:21;17.10;58.40
11597;DHT22;5854;48.072;16.286;2023-08-31T04:37:48;17.10;58.20
11597;DHT22;5854;48.072;16.286;2023-08-31T04:40:15;17.20;58.30
11597;DHT22;5854;48.072;16.286;2023-08-31T04:42:43;17.20;57.70
11597;DHT22;5854;48.072;16.286;2023-08-31T04:45:10;17.10;58.20
11597;DHT22;5854;48.072;16.286;2023-08-31T04:47:37;17.20;58.10
11597;DHT22;5854;48.072;16.286;2023-08-31T04:50:07;17.20;57.70
11597;DHT22;5854;48.072;16.286;2023-08-31T04:52:35;17.10;58.10
11597;DHT22;5854;48.072;16.286;2023-08-31T04:55:02;17.10;58.00
11597;DHT22;5854;48.072;16.286;2023-08-31T04:57:32;17.10;58.00
11597;DHT22;5854;48.072;16.286;2023-08-31T05:00:00;17.20;58.00
11597;DHT22;5854;48.072;16.286;2023-08-31T05:02:28;17.20;58.10
11597;DHT22;5854;48.072;16.286;2023-08-31T05:04:55;17.30;58.00
11597;DHT22;5854;48.072;16.286;2023-08-31T05:07:24;17.30;57.90
11597;DHT22;5854;48.072;16.286;2023-08-31T05:09:51;17.30;57.30
11597;DHT22;5854;48.072;16.286;2023-08-31T05:12:18;17.30;57.40
11597;DHT22;5854;48.072;16.286;2023-08-31T05:14:45;17.30;57.50
11597;DHT22;5854;48.072;16.286;2023-08-31T05:17:12;17.30;57.40
11597;DHT22;5854;48.072;16.286;2023-08-31T05:19:40;17.40;57.30
11597;DHT22;5854;48.072;16.286;2023-08-31T05:22:08;17.40;56.70
11597;DHT22;5854;48.072;16.286;2023-08-31T05:24:37;17.30;57.20
11597;DHT22;5854;48.072;16.286;2023-08-31T05:27:04;17.50;57.20
11597;DHT22;5854;48.072;16.286;2023-08-31T05:29:31;17.50;57.10
11597;DHT22;5854;48.072;16.286;2023-08-31T05:31:58;17.60;56.90
11597;DHT22;5854;48.072;16.286;2023-08-31T05:34:26;17.70;56.30
11597;DHT22;5854;48.072;16.286;2023-08-31T05:36:53;17.80;56.00
11597;DHT22;5854;48.072;16.286;2023-08-31T05:39:21;17.80;55.60
11597;DHT22;5854;48.072;16.286;2023-08-31T05:41:49;17.80;55.50
11597;DHT22;5854;48.072;16.286;2023-08-31T05:44:17;17.90;55.40
11597;DHT22;5854;48.072;16.286;2023-08-31T05:46:44;18.00;55.40
11597;DHT22;5854;48.072;16.286;2023-08-31T05:49:12;18.10;55.20
11597;DHT22;5854;48.072;16.286;2023-08-31T05:51:40;18.10;56.00
11597;DHT22;5854;48.072;16.286;2023-08-31T05:54:10;18.20;54.90
11597;DHT22;5854;48.072;16.286;2023-08-31T05:56:41;18.20;56.70
11597;DHT22;5854;48.072;16.286;2023-08-31T05:59:24;18.10;55.20
11597;DHT22;5854;48.072;16.286;2023-08-31T06:01:51;18.20;55.00
11597;DHT22;5854;48.072;16.286;2023-08-31T06:04:18;18.30;53.80
11597;DHT22;5854;48.072;16.286;2023-08-31T06:06:46;18.40;55.20
11597;DHT22;5854;48.072;16.286;2023-08-31T06:09:14;18.40;54.70
11597;DHT22;5854;48.072;16.286;2023-08-31T06:11:44;18.50;54.70
11597;DHT22;5854;48.072;16.286;2023-08-31T06:14:16;18.70;53.50
11597;DHT22;5854;48.072;16.286;2023-08-31T06:16:45;18.70;53.30
11597;DHT22;5854;48.072;16.286;2023-08-31T06:19:13;18.70;52.60
11597;DHT22;5854;48.072;16.286;2023-08-31T06:21:41;18.80;52.40
11597;DHT22;5854;48.072;16.286;2023-08-31T06:24:08;18.80;52.10
11597;DHT22;5854;48.072;16.286;2023-08-31T06:26:38;18.90;52.00
11597;DHT22;5854;48.072;16.286;2023-08-31T06:29:05;19.10;51.10
11597;DHT22;5854;48.072;16.286;2023-08-31T06:31:35;19.30;50.80
11597;DHT22;5854;48.072;16.286;2023-08-31T06:34:02;19.30;50.10
11597;DHT22;5854;48.072;16.286;2023-08-31T06:36:29;19.20;50.40
11597;DHT22;5854;48.072;16.286;2023-08-31T06:44:02;19.30;50.80
11597;DHT22;5854;48.072;16.286;2023-08-31T06:46:29;19.30;50.00
11597;DHT22;5854;48.072;16.286;2023-08-31T06:49:01;19.40;50.20
11597;DHT22;5854;48.072;16.286;2023-08-31T06:51:28;19.40;50.60
11597;DHT22;5854;48.072;16.286;2023-08-31T06:53:55;19.40;50.40
11597;DHT22;5854;48.072;16.286;2023-08-31T06:56:27;19.50;50.40
11597;DHT22;5854;48.072;16.286;2023-08-31T06:58:54;20.10;49.00
11597;DHT22;5854;48.072;16.286;2023-08-31T07:01:21;20.70;48.00
11597;DHT22;5854;48.072;16.286;2023-08-31T07:03:48;21.10;46.30
11597;DHT22;5854;48.072;16.286;2023-08-31T07:06:18;21.20;45.70
11597;DHT22;5854;48.072;16.286;2023-08-31T07:11:27;21.90;44.10
11597;DHT22;5854;48.072;16.286;2023-08-31T07:13:54;22.10;43.70
11597;DHT22;5854;48.072;16.286;2023-08-31T07:16:23;22.60;43.40
11597;DHT22;5854;48.072;16.286;2023-08-31T07:24:15;22.20;42.00
11597;DHT22;5854;48.072;16.286;2023-08-31T07:26:44;22.20;42.60
11597;DHT22;5854;48.072;16.286;2023-08-31T07:29:12;22.50;42.80
11597;DHT22;5854;48.072;16.286;2023-08-31T07:31:42;22.80;42.50
11597;DHT22;5854;48.072;16.286;2023-08-31T07:34:09;22.80;41.60
11597;DHT22;5854;48.072;16.286;2023-08-31T07:36:37;22.60;41.80
11597;DHT22;5854;48.072;16.286;2023-08-31T07:39:06;23.10;41.20
11597;DHT22;5854;48.072;16.286;2023-08-31T07:41:33;23.10;41.40
11597;DHT22;5854;48.072;16.286;2023-08-31T07:44:00;23.50;41.30
11597;DHT22;5854;48.072;16.286;2023-08-31T07:46:28;23.10;41.40
11597;DHT22;5854;48.072;16.286;2023-08-31T07:48:55;23.70;40.50
11597;DHT22;5854;48.072;16.286;2023-08-31T07:51:22;23.30;39.80
11597;DHT22;5854;48.072;16.286;2023-08-31T07:53:51;22.50;41.90
11597;DHT22;5854;48.072;16.286;2023-08-31T07:56:19;22.30;41.50
11597;DHT22;5854;48.072;16.286;2023-08-31T07:58:47;21.90;42.80
11597;DHT22;5854;48.072;16.286;2023-08-31T08:01:14;22.50;42.00
11597;DHT22;5854;48.072;16.286;2023-08-31T08:03:41;22.60;41.60
11597;DHT22;5854;48.072;16.286;2023-08-31T08:06:08;21.40;43.10
11597;DHT22;5854;48.072;16.286;2023-08-31T08:08:35;20.80;44.80
11597;DHT22;5854;48.072;16.286;2023-08-31T08:11:04;20.40;45.70
11597;DHT22;5854;48.072;16.286;2023-08-31T08:13:36;20.10;46.50
11597;DHT22;5854;48.072;16.286;2023-08-31T08:16:03;20.10;46.80
11597;DHT22;5854;48.072;16.286;2023-08-31T08:18:30;20.20;46.50
11597;DHT22;5854;48.072;16.286;2023-08-31T08:20:57;20.20;46.80
11597;DHT22;5854;48.072;16.286;2023-08-31T08:23:25;20.20;46.60
11597;DHT22;5854;48.072;16.286;2023-08-31T08:30:56;20.00;46.50
11597;DHT22;5854;48.072;16.286;2023-08-31T08:33:23;20.20;46.00
11597;DHT22;5854;48.072;16.286;2023-08-31T08:35:50;20.20;46.20
11597;DHT22;5854;48.072;16.286;2023-08-31T08:38:17;20.60;47.30
11597;DHT22;5854;48.072;16.286;2023-08-31T08:40:46;20.70;46.10
11597;DHT22;5854;48.072;16.286;2023-08-31T08:43:14;20.80;46.30
11597;DHT22;5854;48.072;16.286;2023-08-31T08:45:43;20.90;45.90
11597;DHT22;5854;48.072;16.286;2023-08-31T08:48:15;21.10;45.30
11597;DHT22;5854;48.072;16.286;2023-08-31T08:50:42;21.20;44.90
11597;DHT22;5854;48.072;16.286;2023-08-31T08:53:11;21.30;45.30
11597;DHT22;5854;48.072;16.286;2023-08-31T08:55:40;21.20;44.70
11597;DHT22;5854;48.072;16.286;2023-08-31T08:58:08;20.80;45.00
11597;DHT22;5854;48.072;16.286;2023-08-31T09:00:35;20.80;45.40
11597;DHT22;5854;48.072;16.286;2023-08-31T09:03:03;20.90;45.00
11597;DHT22;5854;48.072;16.286;2023-08-31T09:05:36;20.90;45.20
11597;DHT22;5854;48.072;16.286;2023-08-31T09:08:07;20.60;45.40
11597;DHT22;5854;48.072;16.286;2023-08-31T09:10:40;20.70;46.40
11597;DHT22;5854;48.072;16.286;2023-08-31T09:13:08;21.10;45.40
11597;DHT22;5854;48.072;16.286;2023-08-31T09:15:38;21.10;45.00
11597;DHT22;5854;48.072;16.286;2023-08-31T09:18:13;21.10;45.50
11597;DHT22;5854;48.072;16.286;2023-08-31T09:23:32;21.40;44.10
11597;DHT22;5854;48.072;16.286;2023-08-31T09:26:00;21.60;44.00
11597;DHT22;5854;48.072;16.286;2023-08-31T09:28:28;21.70;43.80
11597;DHT22;5854;48.072;16.286;2023-08-31T09:31:05;21.40;42.20
11597;DHT22;5854;48.072;16.286;2023-08-31T09:33:34;21.30;42.70
11597;DHT22;5854;48.072;16.286;2023-08-31T09:36:02;21.20;42.60
11597;DHT22;5854;48.072;16.286;2023-08-31T09:38:33;21.20;43.00
11597;DHT22;5854;48.072;16.286;2023-08-31T09:41:07;21.30;42.30
11597;DHT22;5854;48.072;16.286;2023-08-31T09:43:34;21.10;42.30
11597;DHT22;5854;48.072;16.286;2023-08-31T09:46:03;21.30;41.80
11597;DHT22;5854;48.072;16.286;2023-08-31T09:48:31;21.20;42.10
11597;DHT22;5854;48.072;16.286;2023-08-31T09:51:03;21.10;42.00
11597;DHT22;5854;48.072;16.286;2023-08-31T09:53:32;21.30;42.60
11597;DHT22;5854;48.072;16.286;2023-08-31T09:56:05;21.30;42.10
11597;DHT22;5854;48.072;16.286;2023-08-31T09:58:33;21.20;41.70
11597;DHT22;5854;48.072;16.286;2023-08-31T10:01:00;21.20;42.50
11597;DHT22;5854;48.072;16.286;2023-08-31T10:03:28;21.40;42.40
11597;DHT22;5854;48.072;16.286;2023-08-31T10:05:55;21.60;42.30
11597;DHT22;5854;48.072;16.286;2023-08-31T10:08:23;21.70;42.10
11597;DHT22;5854;48.072;16.286;2023-08-31T10:10:53;22.10;42.50
11597;DHT22;5854;48.072;16.286;2023-08-31T10:13:22;22.30;40.90
11597;DHT22;5854;48.072;16.286;2023-08-31T10:15:50;22.20;43.70
11597;DHT22;5854;48.072;16.286;2023-08-31T10:18:17;22.50;40.20
11597;DHT22;5854;48.072;16.286;2023-08-31T10:20:45;22.40;38.70
11597;DHT22;5854;48.072;16.286;2023-08-31T10:23:12;22.30;39.00
11597;DHT22;5854;48.072;16.286;2023-08-31T10:26:05;22.30;38.80
11597;DHT22;5854;48.072;16.286;2023-08-31T10:28:40;21.90;38.50
11597;DHT22;5854;48.072;16.286;2023-08-31T10:31:09;21.80;39.00
11597;DHT22;5854;48.072;16.286;2023-08-31T10:33:40;21.50;38.30
11597;DHT22;5854;48.072;16.286;2023-08-31T10:36:11;21.50;38.80
11597;DHT22;5854;48.072;16.286;2023-08-31T10:38:39;21.30;39.10
11597;DHT22;5854;48.072;16.286;2023-08-31T10:41:19;21.60;39.50
11597;DHT22;5854;48.072;16.286;2023-08-31T10:43:50;21.60;39.80
11597;DHT22;5854;48.072;16.286;2023-08-31T10:46:29;21.80;40.70
11597;DHT22;5854;48.072;16.286;2023-08-31T10:48:58;21.80;38.90
11597;DHT22;5854;48.072;16.286;2023-08-31T10:51:28;21.60;40.10
11597;DHT22;5854;48.072;16.286;2023-08-31T10:54:07;21.70;40.50
11597;DHT22;5854;48.072;16.286;2023-08-31T10:59:44;21.90;38.60
11597;DHT22;5854;48.072;16.286;2023-08-31T11:02:38;21.90;39.30
11597;DHT22;5854;48.072;16.286;2023-08-31T11:05:09;21.70;39.30
11597;DHT22;5854;48.072;16.286;2023-08-31T11:07:38;21.50;39.40
11597;DHT22;5854;48.072;16.286;2023-08-31T11:10:11;21.50;39.20
11597;DHT22;5854;48.072;16.286;2023-08-31T11:12:42;21.40;39.30
11597;DHT22;5854;48.072;16.286;2023-08-31T11:15:12;21.60;39.80
11597;DHT22;5854;48.072;16.286;2023-08-31T11:17:42;21.80;38.40
11597;DHT22;5854;48.072;16.286;2023-08-31T11:20:13;21.90;39.10
11597;DHT22;5854;48.072;16.286;2023-08-31T11:22:43;22.20;39.30
11597;DHT22;5854;48.072;16.286;2023-08-31T11:25:13;22.30;39.00
11597;DHT22;5854;48.072;16.286;2023-08-31T11:27:42;22.10;39.30
11597;DHT22;5854;48.072;16.286;2023-08-31T11:30:14;22.10;39.20
11597;DHT22;5854;48.072;16.286;2023-08-31T11:32:45;22.30;39.60
11597;DHT22;5854;48.072;16.286;2023-08-31T11:35:14;22.60;40.90
11597;DHT22;5854;48.072;16.286;2023-08-31T11:37:42;22.60;38.70
11597;DHT22;5854;48.072;16.286;2023-08-31T11:40:11;22.50;38.20
11597;DHT22;5854;48.072;16.286;2023-08-31T11:42:42;22.50;38.30
11597;DHT22;5854;48.072;16.286;2023-08-31T11:45:10;22.30;38.10
11597;DHT22;5854;48.072;16.286;2023-08-31T11:47:40;22.10;39.20
11597;DHT22;5854;48.072;16.286;2023-08-31T11:50:11;22.10;39.50
11597;DHT22;5854;48.072;16.286;2023-08-31T11:52:39;22.20;40.20
11597;DHT22;5854;48.072;16.286;2023-08-31T11:55:13;22.40;39.80
11597;DHT22;5854;48.072;16.286;2023-08-31T11:57:49;22.40;39.20
11597;DHT22;5854;48.072;16.286;2023-08-31T12:00:17;22.30;39.50
11597;DHT22;5854;48.072;16.286;2023-08-31T12:02:45;22.30;39.00
11597;DHT22;5854;48.072;16.286;2023-08-31T12:05:14;22.20;39.30
11597;DHT22;5854;48.072;16.286;2023-08-31T12:07:42;22.30;39.00
11597;DHT22;5854;48.072;16.286;2023-08-31T12:10:10;22.20;39.10
11597;DHT22;5854;48.072;16.286;2023-08-31T12:12:37;22.40;39.30
11597;DHT22;5854;48.072;16.286;2023-08-31T12:15:07;22.50;39.10
11597;DHT22;5854;48.072;16.286;2023-08-31T12:17:37;22.40;38.30
11597;DHT22;5854;48.072;16.286;2023-08-31T12:20:06;22.40;38.80
11597;DHT22;5854;48.072;16.286;2023-08-31T12:22:33;22.40;38.50
11597;DHT22;5854;48.072;16.286;2023-08-31T12:25:01;22.40;40.40
11597;DHT22;5854;48.072;16.286;2023-08-31T12:27:28;22.50;39.10
11597;DHT22;5854;48.072;16.286;2023-08-31T12:29:56;22.50;38.80
11597;DHT22;5854;48.072;16.286;2023-08-31T12:32:24;22.10;39.10
11597;DHT22;5854;48.072;16.286;2023-08-31T12:34:51;22.00;39.00
11597;DHT22;5854;48.072;16.286;2023-08-31T12:37:19;22.20;39.80
11597;DHT22;5854;48.072;16.286;2023-08-31T12:39:48;22.30;40.00
11597;DHT22;5854;48.072;16.286;2023-08-31T12:42:29;22.50;39.30
11597;DHT22;5854;48.072;16.286;2023-08-31T12:44:56;22.30;38.60
11597;DHT22;5854;48.072;16.286;2023-08-31T12:47:25;22.30;38.10
11597;DHT22;5854;48.072;16.286;2023-08-31T12:49:52;22.40;39.00
11597;DHT22;5854;48.072;16.286;2023-08-31T12:52:20;22.40;41.50
11597;DHT22;5854;48.072;16.286;2023-08-31T13:10:14;22.30;38.10
11597;DHT22;5854;48.072;16.286;2023-08-31T13:12:42;22.30;36.20
11597;DHT22;5854;48.072;16.286;2023-08-31T13:15:10;22.10;36.70
11597;DHT22;5854;48.072;16.286;2023-08-31T13:17:37;22.10;36.70
11597;DHT22;5854;48.072;16.286;2023-08-31T13:20:05;22.10;36.90
11597;DHT22;5854;48.072;16.286;2023-08-31T13:22:35;22.20;37.50
11597;DHT22;5854;48.072;16.286;2023-08-31T13:25:03;22.20;37.50
11597;DHT22;5854;48.072;16.286;2023-08-31T13:27:32;22.20;37.20
11597;DHT22;5854;48.072;16.286;2023-08-31T13:29:59;22.30;36.80
11597;DHT22;5854;48.072;16.286;2023-08-31T13:32:26;22.40;36.80
11597;DHT22;5854;48.072;16.286;2023-08-31T13:34:54;22.50;37.40
11597;DHT22;5854;48.072;16.286;2023-08-31T13:37:21;22.60;36.70
11597;DHT22;5854;48.072;16.286;2023-08-31T13:39:50;22.60;36.80
11597;DHT22;5854;48.072;16.286;2023-08-31T13:42:20;22.60;36.40
11597;DHT22;5854;48.072;16.286;2023-08-31T13:44:49;22.60;36.10
11597;DHT22;5854;48.072;16.286;2023-08-31T13:47:16;22.50;36.70
11597;DHT22;5854;48.072;16.286;2023-08-31T13:49:43;22.40;36.60
11597;DHT22;5854;48.072;16.286;2023-08-31T13:52:10;22.40;37.10
11597;DHT22;5854;48.072;16.286;2023-08-31T13:54:38;22.40;36.60
11597;DHT22;5854;48.072;16.286;2023-08-31T13:57:05;22.30;36.90
11597;DHT22;5854;48.072;16.286;2023-08-31T13:59:32;22.40;37.00
11597;DHT22;5854;48.072;16.286;2023-08-31T14:02:00;22.80;35.90
11597;DHT22;5854;48.072;16.286;2023-08-31T14:04:29;23.40;34.60
11597;DHT22;5854;48.072;16.286;2023-08-31T14:06:56;23.90;34.80
11597;DHT22;5854;48.072;16.286;2023-08-31T14:09:23;23.90;33.90
11597;DHT22;5854;48.072;16.286;2023-08-31T14:11:51;24.10;34.70
11597;DHT22;5854;48.072;16.286;2023-08-31T14:14:18;23.90;34.40
11597;DHT22;5854;48.072;16.286;2023-08-31T14:16:45;23.70;35.20
11597;DHT22;5854;48.072;16.286;2023-08-31T14:19:14;23.30;35.80
11597;DHT22;5854;48.072;16.286;2023-08-31T14:21:41;23.20;36.70
11597;DHT22;5854;48.072;16.286;2023-08-31T14:24:08;23.10;36.50
11597;DHT22;5854;48.072;16.286;2023-08-31T14:26:35;22.90;36.80
11597;DHT22;5854;48.072;16.286;2023-08-31T14:29:02;23.00;36.90
11597;DHT22;5854;48.072;16.286;2023-08-31T14:31:29;22.90;36.90
11597;DHT22;5854;48.072;16.286;2023-08-31T14:33:56;22.90;35.80
11597;DHT22;5854;48.072;16.286;2023-08-31T14:36:25;22.80;36.40
11597;DHT22;5854;48.072;16.286;2023-08-31T14:38:53;22.70;36.60
11597;DHT22;5854;48.072;16.286;2023-08-31T14:41:20;22.80;36.60
11597;DHT22;5854;48.072;16.286;2023-08-31T14:43:47;22.90;36.80
11597;DHT22;5854;48.072;16.286;2023-08-31T14:46:14;22.90;36.70
11597;DHT22;5854;48.072;16.286;2023-08-31T14:48:41;22.90;36.90
11597;DHT22;5854;48.072;16.286;2023-08-31T14:51:09;22.90;36.70
11597;DHT22;5854;48.072;16.286;2023-08-31T14:53:37;23.00;36.70
11597;DHT22;5854;48.072;16.286;2023-08-31T14:56:05;23.00;37.30
11597;DHT22;5854;48.072;16.286;2023-08-31T14:58:33;22.80;37.10
11597;DHT22;5854;48.072;16.286;2023-08-31T15:01:01;22.90;36.90
11597;DHT22;5854;48.072;16.286;2023-08-31T15:03:29;22.90;35.90
11597;DHT22;5854;48.072;16.286;2023-08-31T15:05:56;22.80;36.40
11597;DHT22;5854;48.072;16.286;2023-08-31T15:08:35;22.80;35.90
11597;DHT22;5854;48.072;16.286;2023-08-31T15:11:04;22.80;36.90
11597;DHT22;5854;48.072;16.286;2023-08-31T15:13:31;22.80;36.70
11597;DHT22;5854;48.072;16.286;2023-08-31T15:15:58;22.80;37.00
11597;DHT22;5854;48.072;16.286;2023-08-31T15:18:26;22.70;38.30
11597;DHT22;5854;48.072;16.286;2023-08-31T15:20:53;22.80;37.40
11597;DHT22;5854;48.072;16.286;2023-08-31T15:23:20;22.80;37.50
11597;DHT22;5854;48.072;16.286;2023-08-31T15:25:49;22.80;36.90
11597;DHT22;5854;48.072;16.286;2023-08-31T15:28:16;22.70;36.30
11597;DHT22;5854;48.072;16.286;2023-08-31T15:30:43;22.50;37.50
11597;DHT22;5854;48.072;16.286;2023-08-31T15:33:10;22.60;37.50
11597;DHT22;5854;48.072;16.286;2023-08-31T15:35:37;22.60;37.20
11597;DHT22;5854;48.072;16.286;2023-08-31T15:38:04;22.60;37.70
11597;DHT22;5854;48.072;16.286;2023-08-31T15:40:31;22.60;37.30
11597;DHT22;5854;48.072;16.286;2023-08-31T15:42:59;22.60;37.00
11597;DHT22;5854;48.072;16.286;2023-08-31T15:45:27;22.80;37.30
11597;DHT22;5854;48.072;16.286;2023-08-31T15:47:54;22.90;36.90
11597;DHT22;5854;48.072;16.286;2023-08-31T15:50:21;23.00;36.30
11597;DHT22;5854;48.072;16.286;2023-08-31T15:52:48;23.00;36.60
11597;DHT22;5854;48.072;16.286;2023-08-31T15:55:15;22.80;36.20
11597;DHT22;5854;48.072;16.286;2023-08-31T15:57:42;22.80;36.20
11597;DHT22;5854;48.072;16.286;2023-08-31T16:00:11;22.80;36.90
11597;DHT22;5854;48.072;16.286;2023-08-31T16:02:38;22.80;36.50
11597;DHT22;5854;48.072;16.286;2023-08-31T16:05:06;22.70;36.70
11597;DHT22;5854;48.072;16.286;2023-08-31T16:07:35;22.60;37.90
11597;DHT22;5854;48.072;16.286;2023-08-31T16:10:03;22.50;37.90
11597;DHT22;5854;48.072;16.286;2023-08-31T16:12:31;22.60;37.60
11597;DHT22;5854;48.072;16.286;2023-08-31T16:14:58;22.60;38.00
11597;DHT22;5854;48.072;16.286;2023-08-31T16:17:27;22.60;37.30